Time;durP1;ratioP1;P1;durP2;ratioP2;P2;SDS_P1;SDS_P2;PMS_P1;PMS_P2;Temp;Humidity;BMP_temperature;BMP_pressure;BME280_temperature;BME280_humidity;BME280_pressure;Samples;Min_cycle;Max_cycle;Signal;HPM_P1;HPM_P2
2024/04/10 00:01:17;;;;;;;1.20;0.38;;;;;;;13.15;76.53;100785.03;5395634;26;19996;-69
2024/04/10 00:03:43;;;;;;;1.83;0.60;;;;;;;12.89;77.07;100793.19;5406966;26;20006;-69
2024/04/10 00:06:09;;;;;;;0.80;0.60;;;;;;;12.82;78.17;100784.97;5415039;26;20014;-69
2024/04/10 00:08:36;;;;;;;0.85;0.47;;;;;;;12.96;77.35;100795.97;5409089;26;20013;-69
2024/04/10 00:11:01;;;;;;;2.10;0.60;;;;;;;12.84;77.83;100788.84;5402822;26;20077;-69
2024/04/10 00:13:28;;;;;;;3.13;0.68;;;;;;;13.03;76.97;100788.75;5403875;26;20497;-69
2024/04/10 00:16:08;;;;;;;0.55;0.52;;;;;;;12.81;77.54;100802.34;5389453;26;20000;-68
2024/04/10 00:18:35;;;;;;;1.67;0.63;;;;;;;12.94;77.15;100801.75;5404669;26;20061;-68
2024/04/10 00:21:01;;;;;;;1.63;0.52;;;;;;;13.02;76.71;100808.81;5408136;26;20103;-68
2024/04/10 00:23:27;;;;;;;2.88;0.75;;;;;;;12.98;77.16;100809.88;5393529;26;20103;-69
2024/04/10 00:25:58;;;;;;;0.65;0.52;;;;;;;12.92;77.10;100803.25;5404968;26;20156;-69
2024/04/10 00:28:23;;;;;;;1.02;0.43;;;;;;;12.97;76.73;100811.81;5412347;26;20000;-68
2024/04/10 00:30:49;;;;;;;4.20;0.85;;;;;;;12.97;77.52;100816.47;5413067;26;19996;-68
2024/04/10 00:33:15;;;;;;;0.85;0.40;;;;;;;12.84;77.82;100825.91;5410778;26;19995;-69
2024/04/10 00:35:40;;;;;;;5.25;0.70;;;;;;;12.78;77.81;100822.75;5410829;26;20007;-69
2024/04/10 00:38:06;;;;;;;6.07;0.70;;;;;;;12.92;77.24;100835.69;5378165;26;20003;-68
2024/04/10 00:40:32;;;;;;;2.67;1.58;;;;;;;13.01;77.15;100822.66;5379747;26;20453;-69
2024/04/10 00:43:04;;;;;;;1.08;0.70;;;;;;;12.84;76.80;100820.50;5411688;26;20015;-69
2024/04/10 00:45:35;;;;;;;1.00;0.70;;;;;;;12.60;77.63;100819.03;5408359;26;20624;-69
2024/04/10 00:48:00;;;;;;;2.05;0.60;;;;;;;12.93;76.84;100829.16;5406959;26;19997;-68
2024/04/10 00:50:26;;;;;;;0.82;0.55;;;;;;;12.93;77.01;100837.25;5412684;26;20000;-69
2024/04/10 00:52:52;;;;;;;0.93;0.52;;;;;;;13.12;76.14;100831.75;5404814;26;20014;-68
2024/04/10 00:55:21;;;;;;;2.67;0.70;;;;;;;12.99;76.22;100846.59;5402141;26;20011;-68
2024/04/10 00:57:47;;;;;;;0.65;0.60;;;;;;;12.70;77.91;100845.41;5404788;26;20015;-68
2024/04/10 01:00:16;;;;;;;1.40;0.70;;;;;;;12.76;77.48;100848.56;5372678;26;19996;-69
2024/04/10 01:02:42;;;;;;;1.35;0.85;;;;;;;12.93;77.28;100848.06;5404150;26;20844;-69
2024/04/10 01:05:08;;;;;;;2.00;1.00;;;;;;;13.16;76.07;100846.09;5409486;26;20041;-69
2024/04/10 01:07:34;;;;;;;2.90;0.88;;;;;;;13.04;76.03;100855.22;5407498;26;20374;-68
2024/04/10 01:09:59;;;;;;;2.22;0.65;;;;;;;12.75;77.20;100853.22;5404109;26;20330;-69
2024/04/10 01:12:28;;;;;;;1.20;0.70;;;;;;;12.82;77.04;100853.31;5406429;26;19996;-68
2024/04/10 01:14:54;;;;;;;3.70;0.80;;;;;;;12.48;77.68;100855.13;5415028;26;20070;-68
2024/04/10 01:17:19;;;;;;;0.63;0.57;;;;;;;12.72;78.13;100845.06;5422382;26;19996;-68
2024/04/10 01:19:45;;;;;;;0.70;0.60;;;;;;;12.97;76.08;100849.66;5417445;26;20014;-68
2024/04/10 01:22:10;;;;;;;1.58;1.10;;;;;;;12.78;77.71;100857.09;5408070;26;20619;-68
2024/04/10 01:24:36;;;;;;;0.93;0.73;;;;;;;12.83;76.73;100870.31;5399110;26;20008;-69
2024/04/10 01:27:02;;;;;;;8.88;0.95;;;;;;;12.42;78.62;100872.78;5406429;26;20010;-68
2024/04/10 01:29:28;;;;;;;5.35;0.85;;;;;;;12.40;79.28;100883.16;5414171;26;20031;-69
2024/04/10 01:31:54;;;;;;;1.90;0.85;;;;;;;12.51;79.10;100870.59;5411794;26;20003;-69
2024/04/10 01:34:19;;;;;;;0.90;0.75;;;;;;;12.69;78.37;100874.38;5376243;26;20012;-68
2024/04/10 01:36:45;;;;;;;4.93;0.80;;;;;;;12.73;77.73;100882.53;5404049;26;20352;-69
2024/04/10 01:39:11;;;;;;;1.90;0.75;;;;;;;12.74;78.08;100888.72;5406067;26;19999;-68
2024/04/10 01:41:37;;;;;;;3.58;0.85;;;;;;;12.54;79.24;100891.47;5413174;26;20076;-69
2024/04/10 01:44:02;;;;;;;2.38;1.05;;;;;;;12.68;78.24;100886.31;5415716;26;19999;-69
2024/04/10 01:46:28;;;;;;;1.35;0.90;;;;;;;12.68;77.68;100888.22;5414655;26;20014;-70
2024/04/10 01:48:53;;;;;;;1.33;0.85;;;;;;;12.86;77.15;100880.38;5405299;26;20079;-68
2024/04/10 01:51:19;;;;;;;1.35;0.90;;;;;;;12.85;77.97;100886.94;5405897;26;20086;-68
2024/04/10 01:53:44;;;;;;;1.23;0.55;;;;;;;12.74;77.48;100878.66;5378908;26;20471;-69
2024/04/10 01:56:10;;;;;;;1.80;0.57;;;;;;;12.90;77.26;100886.63;5381581;26;20424;-69
2024/04/10 01:58:36;;;;;;;1.20;0.63;;;;;;;12.69;77.58;100879.78;5403159;26;20008;-69
2024/04/10 02:01:01;;;;;;;1.55;0.95;;;;;;;12.63;78.26;100894.72;5409401;26;20007;-69
2024/04/10 02:03:27;;;;;;;1.90;1.13;;;;;;;12.62;78.23;100879.66;5405946;26;19996;-69
2024/04/10 02:05:52;;;;;;;1.65;0.95;;;;;;;12.67;78.26;100887.47;5407651;26;20004;-69
2024/04/10 02:08:18;;;;;;;1.83;1.10;;;;;;;12.51;78.92;100904.94;5379046;26;20008;-68
2024/04/10 02:10:43;;;;;;;3.88;1.08;;;;;;;12.51;78.53;100892.22;5376915;26;20007;-69
2024/04/10 02:13:09;;;;;;;5.32;0.98;;;;;;;12.50;78.27;100906.09;5403630;26;20050;-69
2024/04/10 02:15:34;;;;;;;4.95;0.90;;;;;;;12.50;78.83;100906.09;5399239;26;20004;-68
2024/04/10 02:18:00;;;;;;;2.60;0.88;;;;;;;12.42;79.19;100910.59;5400379;26;20000;-69
2024/04/10 02:20:26;;;;;;;0.95;0.70;;;;;;;12.59;78.69;100915.50;5383643;26;20090;-69
2024/04/10 02:22:52;;;;;;;3.90;1.00;;;;;;;12.66;78.20;100909.41;5405073;26;20018;-69
2024/04/10 02:25:17;;;;;;;3.55;1.10;;;;;;;12.48;78.61;100917.25;5381746;26;20000;-69
2024/04/10 02:27:43;;;;;;;0.88;0.60;;;;;;;12.51;78.29;100916.53;5414638;26;19998;-69
2024/04/10 02:30:10;;;;;;;2.95;0.90;;;;;;;12.31;79.29;100922.34;5410653;26;20015;-69
2024/04/10 02:32:35;;;;;;;1.65;0.70;;;;;;;12.43;79.60;100922.16;5384989;26;20028;-68
2024/04/10 02:35:01;;;;;;;5.65;0.95;;;;;;;12.59;78.98;100928.22;5380575;26;20018;-69
2024/04/10 02:37:26;;;;;;;1.65;1.08;;;;;;;12.59;78.62;100931.72;5406244;26;20010;-69
2024/04/10 02:39:52;;;;;;;3.00;0.95;;;;;;;12.38;80.18;100944.88;5383055;26;20003;-69
2024/04/10 02:42:17;;;;;;;0.50;0.47;;;;;;;12.49;79.93;100948.53;5413387;26;20657;-69
2024/04/10 02:44:44;;;;;;;3.53;1.08;;;;;;;12.40;79.82;100949.91;5410351;26;20007;-69
2024/04/10 02:47:10;;;;;;;4.35;0.98;;;;;;;12.52;81.16;100953.19;5406684;26;20036;-69
2024/04/10 02:49:36;;;;;;;8.52;1.48;;;;;;;12.32;81.54;100967.91;5402114;26;20011;-69
2024/04/10 02:52:01;;;;;;;3.22;0.98;;;;;;;12.50;80.99;100979.03;5415462;26;19996;-68
2024/04/10 02:54:29;;;;;;;2.45;1.00;;;;;;;12.56;81.55;100996.50;5414111;26;20457;-69
2024/04/10 02:56:55;;;;;;;2.03;0.77;;;;;;;12.52;82.13;101007.22;5422249;26;20005;-69
2024/04/10 02:59:20;;;;;;;1.95;0.77;;;;;;;12.58;82.79;101021.25;5418875;26;20003;-68
2024/04/10 03:01:46;;;;;;;0.80;0.52;;;;;;;12.53;81.70;101030.41;5420360;26;20041;-69
2024/04/10 03:04:12;;;;;;;1.33;0.80;;;;;;;12.18;81.88;101039.75;5383727;26;20495;-70
2024/04/10 03:06:38;;;;;;;1.92;0.93;;;;;;;12.10;82.42;101028.03;5405783;26;20008;-68
2024/04/10 03:09:04;;;;;;;5.18;0.85;;;;;;;12.28;81.79;101031.06;5421701;26;20015;-68
2024/04/10 03:11:29;;;;;;;1.85;0.75;;;;;;;12.39;80.35;101040.94;5417098;26;19994;-69
2024/04/10 03:13:55;;;;;;;2.15;0.65;;;;;;;12.55;79.69;101044.34;5416115;26;20127;-68
2024/04/10 03:16:20;;;;;;;0.50;0.40;;;;;;;12.37;78.12;101053.22;5408436;26;20019;-69
2024/04/10 03:18:46;;;;;;;1.17;0.40;;;;;;;12.36;78.22;101068.69;5418902;26;20000;-69
2024/04/10 03:21:12;;;;;;;0.20;0.20;;;;;;;12.26;77.98;101053.03;5385239;26;20007;-69
2024/04/10 03:23:37;;;;;;;0.30;0.30;;;;;;;12.22;77.55;101060.28;5385404;26;20509;-69
2024/04/10 03:26:04;;;;;;;0.85;0.43;;;;;;;12.59;76.70;101061.41;5423180;26;20015;-69
2024/04/10 03:28:30;;;;;;;0.35;0.35;;;;;;;12.22;76.43;101067.59;5409414;26;20071;-68
2024/04/10 03:30:56;;;;;;;1.05;0.50;;;;;;;12.26;76.59;101071.94;5411457;26;20028;-68
2024/04/10 03:33:24;;;;;;;1.45;0.30;;;;;;;12.38;76.00;101071.81;5376393;26;20019;-68
2024/04/10 03:35:50;;;;;;;1.42;0.50;;;;;;;12.47;75.12;101082.38;5395280;26;20456;-69
2024/04/10 03:38:16;;;;;;;0.28;0.20;;;;;;;12.28;75.16;101074.28;5412043;26;20011;-70
2024/04/10 03:40:41;;;;;;;0.20;0.20;;;;;;;12.32;76.39;101080.53;5397603;26;20028;-69
2024/04/10 03:43:08;;;;;;;0.20;0.20;;;;;;;12.08;76.05;101078.88;5371906;26;20465;-70
2024/04/10 03:45:35;;;;;;;1.98;0.30;;;;;;;12.44;75.61;101081.19;5379484;26;20011;-69
2024/04/10 03:48:01;;;;;;;0.32;0.10;;;;;;;12.36;74.78;101090.28;5400590;26;20008;-68
2024/04/10 03:50:26;;;;;;;1.70;0.30;;;;;;;12.20;75.53;101088.78;5399312;26;20032;-68
2024/04/10 03:52:56;;;;;;;1.17;0.33;;;;;;;12.18;75.86;101102.63;5373127;26;20514;-70
2024/04/10 03:55:22;;;;;;;0.28;0.20;;;;;;;12.05;76.35;101090.41;5392946;26;20011;-68
2024/04/10 03:57:47;;;;;;;0.20;0.20;;;;;;;12.12;76.53;101104.03;5376603;26;20085;-68
2024/04/10 04:00:13;;;;;;;0.43;0.30;;;;;;;12.34;75.55;101106.06;5405902;26;20406;-68
2024/04/10 04:02:44;;;;;;;0.82;0.45;;;;;;;12.44;75.50;101113.59;5395839;26;20071;-68
2024/04/10 04:05:10;;;;;;;0.57;0.32;;;;;;;12.43;75.39;101117.44;5395953;26;20000;-68
2024/04/10 04:07:36;;;;;;;0.95;0.30;;;;;;;12.39;75.45;101121.97;5396854;26;20007;-68
2024/04/10 04:10:01;;;;;;;0.20;0.20;;;;;;;12.28;75.86;101115.59;5400350;26;20001;-68
2024/04/10 04:12:27;;;;;;;0.82;0.28;;;;;;;12.22;76.16;101118.91;5403425;26;20041;-68
2024/04/10 04:14:52;;;;;;;4.43;0.28;;;;;;;12.40;75.21;101117.38;5398972;26;20011;-69
2024/04/10 04:17:19;;;;;;;0.57;0.25;;;;;;;12.28;75.41;101120.19;5403914;26;20013;-68
2024/04/10 04:19:45;;;;;;;0.80;0.63;;;;;;;12.59;74.10;101123.56;5404996;26;20008;-69
2024/04/10 04:22:11;;;;;;;0.88;0.28;;;;;;;12.56;74.76;101137.00;5409815;26;20028;-69
2024/04/10 04:24:37;;;;;;;0.35;0.20;;;;;;;12.51;74.68;101146.16;5394079;26;20004;-69
2024/04/10 04:27:05;;;;;;;2.08;0.38;;;;;;;12.61;74.67;101150.22;5392534;26;20018;-68
2024/04/10 04:29:31;;;;;;;1.17;0.40;;;;;;;12.48;75.02;101148.78;5402827;26;20364;-69
2024/04/10 04:31:57;;;;;;;1.13;0.28;;;;;;;12.34;75.46;101164.69;5407043;26;20453;-69
2024/04/10 04:34:23;;;;;;;0.47;0.13;;;;;;;12.17;76.00;101154.28;5394604;26;20098;-68
2024/04/10 04:36:48;;;;;;;4.30;0.40;;;;;;;12.27;76.27;101159.91;5403253;26;19996;-69
2024/04/10 04:39:14;;;;;;;0.20;0.20;;;;;;;12.33;75.83;101158.50;5405390;26;19991;-71
2024/04/10 04:41:39;;;;;;;0.30;0.30;;;;;;;12.27;76.13;101161.84;5403725;26;20036;-69
2024/04/10 04:44:05;;;;;;;0.43;0.38;;;;;;;12.34;76.12;101184.38;5403261;26;20354;-68
2024/04/10 04:46:30;;;;;;;1.88;0.40;;;;;;;12.43;76.42;101189.56;5376237;26;20004;-69
2024/04/10 04:48:56;;;;;;;0.80;0.60;;;;;;;12.46;76.68;101189.66;5399759;26;19996;-69
2024/04/10 04:51:21;;;;;;;3.45;0.20;;;;;;;12.29;77.82;101202.78;5401433;26;20364;-69
2024/04/10 04:53:47;;;;;;;1.02;0.50;;;;;;;12.18;79.97;101210.63;5407652;26;20007;-69
2024/04/10 04:56:12;;;;;;;0.20;0.13;;;;;;;12.19;82.42;101227.63;5355133;26;20000;-69
2024/04/10 04:58:38;;;;;;;0.32;0.20;;;;;;;12.13;84.54;101235.22;5399719;26;20000;-69
2024/04/10 05:01:04;;;;;;;4.60;0.70;;;;;;;12.45;83.35;101244.81;5369910;26;20008;-70
2024/04/10 05:06:13;;;;;;;0.38;0.30;;;;;;;11.95;85.90;101260.22;5396715;26;20151;-68
2024/04/10 05:08:39;;;;;;;3.45;0.30;;;;;;;11.97;88.31;101283.03;5400798;26;20024;-69
2024/04/10 05:11:08;;;;;;;0.50;0.30;;;;;;;11.65;89.37;101294.91;5400633;26;20018;-69
2024/04/10 05:13:35;;;;;;;0.60;0.40;;;;;;;11.93;89.19;101302.97;5397428;26;19999;-69
2024/04/10 05:16:00;;;;;;;1.15;0.35;;;;;;;11.96;88.24;101311.16;5403359;26;20026;-68
2024/04/10 05:18:25;;;;;;;0.70;0.65;;;;;;;11.81;88.61;101320.00;5400139;26;20452;-69
2024/04/10 05:20:51;;;;;;;3.03;0.20;;;;;;;11.77;89.18;101321.81;5401680;26;20526;-68
2024/04/10 05:23:17;;;;;;;9.85;0.45;;;;;;;12.10;87.88;101329.63;5398939;26;19995;-68
2024/04/10 05:25:44;;;;;;;3.30;0.35;;;;;;;12.12;87.34;101330.03;5404422;26;20012;-68
2024/04/10 05:28:09;;;;;;;2.90;0.30;;;;;;;12.21;85.78;101342.28;5405094;26;20391;-68
2024/04/10 05:30:35;;;;;;;0.73;0.17;;;;;;;12.05;86.73;101346.88;5335100;26;20000;-68
2024/04/10 05:33:00;;;;;;;0.60;0.30;;;;;;;12.04;86.95;101366.13;5405793;26;20007;-69
2024/04/10 05:35:26;;;;;;;0.68;0.40;;;;;;;11.85;88.74;101368.66;5408317;26;20043;-68
2024/04/10 05:37:52;;;;;;;1.95;0.52;;;;;;;11.72;88.93;101373.34;5408374;26;19995;-68
2024/04/10 05:40:18;;;;;;;4.57;0.90;;;;;;;11.84;88.25;101397.59;5407082;26;20398;-69
2024/04/10 05:42:44;;;;;;;0.50;0.30;;;;;;;11.76;89.77;101398.53;5364076;26;20028;-67
2024/04/10 05:45:14;;;;;;;0.55;0.30;;;;;;;11.75;89.30;101392.34;5405219;26;20000;-68
2024/04/10 05:47:41;;;;;;;0.40;0.40;;;;;;;11.64;88.64;101402.03;5409413;26;20465;-68
2024/04/10 05:50:10;;;;;;;0.47;0.40;;;;;;;11.50;89.22;101403.53;5400079;26;20077;-68
2024/04/10 05:52:36;;;;;;;1.35;0.55;;;;;;;11.85;87.42;101393.75;5404000;26;20003;-68
2024/04/10 05:55:03;;;;;;;5.10;0.52;;;;;;;11.88;86.93;101397.69;5408594;26;20014;-68
2024/04/10 05:57:29;;;;;;;1.05;0.52;;;;;;;11.98;86.92;101403.34;5399089;26;20038;-68
2024/04/10 05:59:54;;;;;;;3.42;0.60;;;;;;;12.22;85.64;101410.53;5410098;26;20342;-69
2024/04/10 06:02:21;;;;;;;1.13;0.47;;;;;;;12.28;85.95;101419.97;5403174;26;20004;-70
2024/04/10 06:04:51;;;;;;;3.05;0.38;;;;;;;12.20;84.79;101429.78;5399836;26;20328;-68
2024/04/10 06:07:16;;;;;;;9.10;0.80;;;;;;;12.19;84.68;101430.94;5400135;26;20002;-69
2024/04/10 06:09:42;;;;;;;0.70;0.50;;;;;;;12.26;84.10;101439.22;5410298;26;19996;-68
2024/04/10 06:12:08;;;;;;;1.10;0.38;;;;;;;12.08;84.41;101451.44;5372269;26;20003;-69
2024/04/10 06:14:33;;;;;;;0.50;0.32;;;;;;;12.04;84.24;101453.28;5372465;26;20000;-68
2024/04/10 06:16:59;;;;;;;0.30;0.30;;;;;;;12.43;83.07;101460.50;5397332;26;20004;-68
2024/04/10 06:19:24;;;;;;;4.25;0.38;;;;;;;12.45;82.51;101463.63;5375784;26;20011;-68
2024/04/10 06:21:50;;;;;;;1.85;0.65;;;;;;;12.13;81.75;101470.13;5403935;26;20046;-69
2024/04/10 06:24:18;;;;;;;3.50;0.50;;;;;;;11.92;81.90;101474.16;5368520;26;20329;-68
2024/04/10 06:26:44;;;;;;;0.28;0.28;;;;;;;12.07;81.58;101468.78;5404213;26;20083;-67
2024/04/10 06:29:09;;;;;;;0.70;0.20;;;;;;;12.08;80.84;101469.59;5405868;26;19997;-67
2024/04/10 06:31:35;;;;;;;3.90;0.63;;;;;;;12.39;79.65;101470.41;5391424;26;20357;-68
2024/04/10 06:34:01;;;;;;;0.32;0.20;;;;;;;12.56;78.78;101467.38;5399996;26;20357;-67
2024/04/10 06:36:26;;;;;;;0.68;0.50;;;;;;;12.62;76.50;101471.41;5403992;26;20004;-67
2024/04/10 06:38:52;;;;;;;0.40;0.17;;;;;;;12.78;74.97;101473.31;5401468;26;20069;-68
2024/04/10 06:41:18;;;;;;;2.88;0.50;;;;;;;13.01;74.18;101471.56;5406058;26;20432;-68
2024/04/10 06:43:43;;;;;;;1.33;0.30;;;;;;;13.17;72.99;101475.06;5406843;26;20011;-68
2024/04/10 06:46:09;;;;;;;3.80;0.77;;;;;;;13.43;72.58;101488.81;5402378;26;20012;-68
2024/04/10 06:48:34;;;;;;;0.50;0.30;;;;;;;13.32;71.31;101480.47;5401320;26;20000;-69
2024/04/10 06:51:04;;;;;;;0.28;0.28;;;;;;;13.52;70.79;101494.81;5400621;26;20027;-68
2024/04/10 06:53:30;;;;;;;0.65;0.30;;;;;;;13.58;71.24;101496.91;5403829;26;19995;-69
2024/04/10 06:55:58;;;;;;;0.77;0.35;;;;;;;13.38;70.71;101500.69;5400029;26;20012;-69
2024/04/10 06:58:25;;;;;;;2.65;0.40;;;;;;;13.15;71.35;101515.22;5403643;26;20013;-69
2024/04/10 07:00:58;;;;;;;1.10;0.45;;;;;;;12.96;74.16;101523.22;5397137;26;20011;-68
2024/04/10 07:03:27;;;;;;;0.30;0.30;;;;;;;12.97;74.94;101532.91;5390538;26;20000;-68
2024/04/10 07:06:10;;;;;;;4.07;0.50;;;;;;;13.03;73.35;101528.78;5396508;26;20014;-68
2024/04/10 07:08:38;;;;;;;1.52;0.50;;;;;;;13.15;73.44;101529.53;5407727;26;20011;-68
2024/04/10 07:11:11;;;;;;;0.77;0.55;;;;;;;12.82;74.05;101541.78;5396447;26;20004;-68
2024/04/10 07:13:45;;;;;;;4.90;0.50;;;;;;;13.15;74.48;101547.66;5400145;26;20004;-69
2024/04/10 07:16:11;;;;;;;3.78;0.50;;;;;;;13.42;73.20;101558.38;5404627;26;20018;-68
2024/04/10 07:18:36;;;;;;;1.98;0.20;;;;;;;13.47;72.84;101560.81;5425663;26;20547;-68
2024/04/10 07:21:07;;;;;;;2.05;0.40;;;;;;;13.62;72.55;101556.53;5409907;26;20077;-68
2024/04/10 07:23:37;;;;;;;1.42;0.82;;;;;;;13.42;72.15;101584.66;5403173;26;20074;-68
2024/04/10 07:26:14;;;;;;;2.45;0.52;;;;;;;13.72;71.34;101572.22;5403101;26;20072;-68
2024/04/10 07:28:41;;;;;;;1.42;0.47;;;;;;;13.43;70.72;101581.59;5410063;26;20014;-69
2024/04/10 07:31:09;;;;;;;1.25;0.55;;;;;;;13.24;72.04;101583.47;5404144;26;20016;-68
2024/04/10 07:33:34;;;;;;;0.98;0.60;;;;;;;13.67;70.59;101580.59;5402331;26;20022;-68
2024/04/10 07:36:11;;;;;;;0.20;0.20;;;;;;;14.09;70.06;101580.75;5410329;26;19996;-69
2024/04/10 07:38:37;;;;;;;5.30;0.40;;;;;;;14.45;68.75;101577.66;5401091;26;20071;-70
2024/04/10 07:41:03;;;;;;;2.05;0.73;;;;;;;14.60;67.59;101584.13;5403820;26;20469;-68
2024/04/10 07:43:29;;;;;;;0.80;0.35;;;;;;;14.75;66.00;101589.44;5407576;26;19995;-69
2024/04/10 07:45:54;;;;;;;4.40;0.93;;;;;;;15.17;66.02;101597.56;5407661;26;20093;-70
2024/04/10 07:48:20;;;;;;;1.42;0.40;;;;;;;15.12;65.04;101597.84;5408786;26;20482;-69
2024/04/10 07:50:45;;;;;;;2.05;0.70;;;;;;;14.91;65.65;101611.03;5409436;26;19999;-69
2024/04/10 07:53:12;;;;;;;0.40;0.32;;;;;;;14.70;65.69;101608.72;5401191;26;20028;-69
2024/04/10 07:55:37;;;;;;;1.48;0.17;;;;;;;14.42;65.55;101625.22;5412044;26;20000;-69
2024/04/10 07:58:03;;;;;;;3.30;0.93;;;;;;;14.39;66.77;101630.56;5407635;26;20782;-68
2024/04/10 08:00:29;;;;;;;0.32;0.25;;;;;;;14.46;66.84;101638.84;5405725;26;20001;-69
2024/04/10 08:02:54;;;;;;;2.70;0.43;;;;;;;14.26;68.06;101654.28;5410315;26;19996;-68
2024/04/10 08:05:20;;;;;;;4.80;1.02;;;;;;;14.20;67.43;101653.00;5411229;26;20068;-68
2024/04/10 08:07:45;;;;;;;0.55;0.40;;;;;;;14.13;69.22;101668.31;5407628;26;20014;-68
2024/04/10 08:10:12;;;;;;;1.50;0.40;;;;;;;14.11;67.94;101648.91;5397569;26;20011;-69
2024/04/10 08:12:38;;;;;;;2.28;0.50;;;;;;;13.76;69.94;101664.34;5408469;26;20008;-68
2024/04/10 08:15:05;;;;;;;5.40;1.48;;;;;;;13.66;70.43;101656.75;5401385;26;20419;-68
2024/04/10 08:17:33;;;;;;;6.82;0.60;;;;;;;13.44;71.44;101661.66;5401558;26;20047;-68
2024/04/10 08:19:58;;;;;;;0.35;0.32;;;;;;;13.70;71.34;101674.66;5397794;26;20004;-69
2024/04/10 08:22:24;;;;;;;2.85;0.55;;;;;;;13.80;70.68;101692.28;5409159;26;20072;-69
2024/04/10 08:24:50;;;;;;;5.28;1.17;;;;;;;13.97;69.48;101686.50;5403523;26;20015;-68
2024/04/10 08:27:16;;;;;;;2.10;0.45;;;;;;;13.90;68.00;101692.53;5404207;26;20002;-68
2024/04/10 08:29:47;;;;;;;2.45;0.50;;;;;;;13.77;67.87;101692.97;5401524;26;20000;-69
2024/04/10 08:32:12;;;;;;;0.65;0.38;;;;;;;13.93;68.13;101696.47;5402799;26;20435;-68
2024/04/10 08:34:38;;;;;;;5.00;0.43;;;;;;;13.88;66.91;101705.63;5401005;26;19999;-69
2024/04/10 08:37:03;;;;;;;3.08;0.50;;;;;;;13.92;66.78;101711.94;5410270;26;20337;-68
2024/04/10 08:39:29;;;;;;;1.23;0.38;;;;;;;14.36;66.26;101713.38;5402371;26;20008;-68
2024/04/10 08:41:55;;;;;;;0.40;0.40;;;;;;;14.45;63.07;101703.13;5409615;26;20004;-69
2024/04/10 08:44:24;;;;;;;1.35;0.52;;;;;;;14.50;61.81;101714.84;5404752;26;20082;-69
2024/04/10 08:46:55;;;;;;;2.15;0.50;;;;;;;14.92;60.52;101715.72;5406577;26;19999;-68
2024/04/10 08:49:22;;;;;;;2.88;0.45;;;;;;;15.35;60.27;101713.44;5403120;26;20003;-68
2024/04/10 08:51:48;;;;;;;0.13;0.13;;;;;;;15.53;60.67;101719.19;5376255;26;20704;-68
2024/04/10 08:54:16;;;;;;;0.82;0.20;;;;;;;15.83;60.90;101730.97;5379833;26;20004;-70
2024/04/10 08:56:41;;;;;;;5.72;0.40;;;;;;;15.86;59.79;101730.25;5404551;26;20461;-67
2024/04/10 08:59:07;;;;;;;4.88;0.43;;;;;;;15.93;58.26;101726.88;5403265;26;19996;-67
2024/04/10 09:01:41;;;;;;;3.00;0.47;;;;;;;15.68;58.72;101722.97;5403584;26;20011;-68
2024/04/10 09:04:11;;;;;;;1.40;0.25;;;;;;;16.03;58.54;101728.94;5405159;26;20045;-69
2024/04/10 09:06:37;;;;;;;5.55;1.02;;;;;;;16.50;57.34;101734.72;5402331;26;20011;-68
2024/04/10 09:09:07;;;;;;;2.50;0.50;;;;;;;16.93;55.92;101757.84;5395617;26;20010;-68
2024/04/10 09:11:33;;;;;;;4.03;0.60;;;;;;;17.51;54.01;101760.84;5403825;26;19991;-69
2024/04/10 09:14:04;;;;;;;0.82;0.30;;;;;;;17.64;53.83;101767.59;5399645;26;20542;-67
2024/04/10 09:16:30;;;;;;;5.28;0.40;;;;;;;18.13;53.56;101769.94;5409682;26;20449;-67
2024/04/10 09:19:16;;;;;;;0.80;0.28;;;;;;;18.40;52.85;101765.84;5406917;26;20014;-67
2024/04/10 09:21:55;;;;;;;1.98;0.35;;;;;;;18.57;50.83;101784.31;5399113;26;20000;-68
2024/04/10 09:24:26;;;;;;;3.22;0.55;;;;;;;18.68;51.06;101779.69;5406314;26;20108;-67
2024/04/10 09:26:51;;;;;;;3.67;0.23;;;;;;;18.49;50.86;101774.50;5411156;26;20014;-68
2024/04/10 09:29:24;;;;;;;1.40;0.38;;;;;;;18.32;50.88;101781.41;5403761;26;20000;-67
2024/04/10 09:31:51;;;;;;;0.45;0.30;;;;;;;18.50;50.86;101790.53;5407593;26;20003;-67
2024/04/10 09:34:20;;;;;;;0.40;0.30;;;;;;;18.47;50.04;101791.25;5394791;26;20090;-67
2024/04/10 09:36:47;;;;;;;4.10;0.60;;;;;;;18.36;50.38;101795.84;5400183;26;20003;-67
2024/04/10 09:39:12;;;;;;;0.88;0.32;;;;;;;18.35;51.25;101805.19;5401073;26;19996;-68
2024/04/10 09:41:44;;;;;;;3.90;1.02;;;;;;;18.32;51.61;101810.63;5400222;26;20010;-68
2024/04/10 09:44:11;;;;;;;6.30;0.85;;;;;;;17.94;51.70;101809.91;5402341;26;20080;-68
2024/04/10 09:46:38;;;;;;;0.57;0.40;;;;;;;17.45;52.07;101811.34;5403011;26;20015;-67
2024/04/10 09:49:14;;;;;;;2.78;0.43;;;;;;;17.32;53.08;101824.44;5403893;26;20010;-67
2024/04/10 09:51:41;;;;;;;2.22;0.68;;;;;;;16.84;54.34;101819.94;5399368;26;20000;-67
2024/04/10 09:54:11;;;;;;;4.13;0.80;;;;;;;16.68;56.21;101819.31;5371457;26;19996;-68
2024/04/10 09:56:39;;;;;;;4.22;1.02;;;;;;;16.98;55.71;101823.59;5393337;26;20004;-67
2024/04/10 09:59:07;;;;;;;2.53;0.70;;;;;;;17.52;56.06;101825.84;5401020;26;20346;-67
2024/04/10 10:01:33;;;;;;;1.75;0.60;;;;;;;18.08;54.73;101822.13;5402083;26;20003;-68
2024/04/10 10:03:59;;;;;;;3.05;0.50;;;;;;;18.59;52.82;101820.19;5411234;26;20002;-67
2024/04/10 10:06:29;;;;;;;2.92;0.57;;;;;;;18.70;52.12;101831.94;5404903;26;20006;-67
2024/04/10 10:10:23;;;;;;;1.05;0.68;;;;;;;18.59;52.51;101831.91;5495870;25;20310;-67
2024/04/10 10:12:49;;;;;;;2.15;0.50;;;;;;;18.73;52.27;101828.47;5430284;26;20087;-67
2024/04/10 10:15:21;;;;;;;1.02;0.47;;;;;;;19.13;52.54;101833.75;5455584;26;20056;-68
2024/04/10 10:17:53;;;;;;;1.65;0.70;;;;;;;19.50;51.04;101833.53;5426859;26;20165;-67
2024/04/10 10:20:19;;;;;;;1.63;0.40;;;;;;;19.71;50.99;101847.25;5462868;26;20045;-67
2024/04/10 10:23:02;;;;;;;1.05;0.38;;;;;;;19.85;49.55;101846.50;5446898;26;20075;-68
2024/04/10 10:25:28;;;;;;;1.83;0.43;;;;;;;19.95;48.73;101856.66;5465000;26;20592;-68
2024/04/10 10:28:08;;;;;;;1.13;0.20;;;;;;;20.17;48.40;101859.03;5454685;26;20467;-68
2024/04/10 10:30:33;;;;;;;2.13;0.73;;;;;;;20.35;47.61;101870.00;5457548;26;20011;-68
2024/04/10 10:33:06;;;;;;;2.85;0.35;;;;;;;19.96;46.92;101864.47;5463461;26;20003;-68
2024/04/10 10:35:32;;;;;;;6.95;0.52;;;;;;;19.57;48.23;101864.38;5462995;26;20522;-67
2024/04/10 10:38:03;;;;;;;3.47;0.40;;;;;;;18.86;49.37;101867.94;5463983;26;20052;-67
2024/04/10 10:40:29;;;;;;;4.20;0.40;;;;;;;18.20;51.07;101885.31;5460860;26;19999;-69
2024/04/10 10:43:02;;;;;;;2.15;0.40;;;;;;;17.99;52.50;101885.13;5467052;26;20416;-68
2024/04/10 10:45:29;;;;;;;1.67;0.43;;;;;;;17.71;53.72;101877.44;5459809;26;20088;-67
2024/04/10 10:47:55;;;;;;;4.10;0.50;;;;;;;18.13;53.15;101876.31;5465298;26;20064;-68
2024/04/10 10:50:20;;;;;;;1.48;0.60;;;;;;;18.58;51.96;101873.97;5460406;26;20006;-67
2024/04/10 10:52:47;;;;;;;2.67;0.73;;;;;;;19.21;51.64;101873.59;5463979;26;20471;-67
2024/04/10 10:55:16;;;;;;;2.78;0.63;;;;;;;19.75;50.09;101875.38;5468449;25;19999;-67
2024/04/10 10:57:41;;;;;;;0.73;0.28;;;;;;;20.19;48.80;101888.78;5447965;26;19998;-68
2024/04/10 11:00:14;;;;;;;1.02;0.43;;;;;;;20.45;47.41;101885.66;5457822;26;20011;-68
2024/04/10 11:02:41;;;;;;;0.70;0.20;;;;;;;20.16;47.09;101889.53;5435968;25;20017;-67
2024/04/10 11:05:16;;;;;;;2.20;0.40;;;;;;;20.25;48.08;101888.00;5463769;26;20090;-67
2024/04/10 11:07:42;;;;;;;0.85;0.40;;;;;;;20.49;47.67;101895.44;5473883;25;20018;-67
2024/04/10 11:10:11;;;;;;;2.97;0.45;;;;;;;20.45;47.03;101899.34;5459490;26;19999;-68
2024/04/10 11:12:37;;;;;;;4.18;0.77;;;;;;;20.51;46.10;101890.34;5456810;26;20008;-68
2024/04/10 11:15:08;;;;;;;0.80;0.45;;;;;;;20.67;46.78;101889.94;5457952;26;20469;-67
2024/04/10 11:17:34;;;;;;;0.75;0.63;;;;;;;20.63;45.46;101897.38;5460107;26;20337;-68
2024/04/10 11:19:59;;;;;;;8.10;1.08;;;;;;;20.27;45.33;101893.06;5457156;26;20032;-68
2024/04/10 11:22:25;;;;;;;2.97;0.65;;;;;;;19.72;47.02;101889.84;5420467;26;20010;-67
2024/04/10 11:24:51;;;;;;;6.13;0.50;;;;;;;19.76;47.69;101887.91;5466686;26;20512;-67
2024/04/10 11:27:18;;;;;;;7.45;0.70;;;;;;;20.04;49.18;101890.69;5448700;26;19994;-67